Time;durP1;ratioP1;P1;durP2;ratioP2;P2;SDS_P1;SDS_P2;PMS_P1;PMS_P2;Temp;Humidity;BMP_temperature;BMP_pressure;BME280_temperature;BME280_humidity;BME280_pressure;Samples;Min_cycle;Max_cycle;Signal;HPM_P1;HPM_P2
2020/12/29 00:00:50;;;;;;;10.00;9.10;;;-1.90;99.90;;;;;;5077586;28;20256;-75
2020/12/29 00:03:18;;;;;;;10.35;9.40;;;-2.00;99.90;;;;;;5068553;28;20225;-74
2020/12/29 00:05:44;;;;;;;9.38;8.57;;;-2.00;99.90;;;;;;5074190;28;20224;-74
2020/12/29 00:08:11;;;;;;;8.13;7.32;;;-2.00;99.90;;;;;;5075618;28;20270;-74
2020/12/29 00:10:38;;;;;;;8.27;7.57;;;-2.00;99.90;;;;;;5078764;28;20221;-76
2020/12/29 00:13:05;;;;;;;8.63;7.93;;;-2.10;99.90;;;;;;5078653;28;20225;-75
2020/12/29 00:15:31;;;;;;;9.65;8.85;;;-2.10;99.90;;;;;;5080665;27;20261;-74
2020/12/29 00:17:58;;;;;;;8.38;7.68;;;-2.10;99.90;;;;;;5093473;28;20243;-76
2020/12/29 00:20:26;;;;;;;8.48;7.78;;;-2.10;99.90;;;;;;5082320;28;20233;-74
2020/12/29 00:22:53;;;;;;;8.25;7.53;;;-2.10;99.90;;;;;;5083125;28;20237;-74
2020/12/29 00:25:19;;;;;;;7.22;6.68;;;-2.20;99.90;;;;;;5086584;28;20781;-75
2020/12/29 00:27:47;;;;;;;7.88;7.28;;;-2.20;99.90;;;;;;5076809;28;20225;-73
2020/12/29 00:30:13;;;;;;;7.55;7.05;;;-2.10;99.90;;;;;;5075254;28;20316;-73
2020/12/29 00:32:40;;;;;;;8.00;7.50;;;-2.10;99.90;;;;;;5075878;28;20296;-75
2020/12/29 00:35:07;;;;;;;9.35;8.55;;;-2.10;99.90;;;;;;5077891;28;20213;-74
2020/12/29 00:37:34;;;;;;;9.43;8.63;;;-2.00;99.90;;;;;;5074949;28;20213;-74
2020/12/29 00:40:01;;;;;;;8.60;7.72;;;-2.00;99.90;;;;;;5078519;28;20225;-76
2020/12/29 00:42:31;;;;;;;8.18;7.68;;;-2.00;99.90;;;;;;5082314;28;20712;-74
2020/12/29 00:44:58;;;;;;;7.35;6.75;;;-2.10;99.90;;;;;;5080818;28;20218;-74
2020/12/29 00:47:25;;;;;;;8.27;7.68;;;-2.10;99.90;;;;;;5077246;28;20221;-72
2020/12/29 00:49:51;;;;;;;7.45;6.95;;;-2.20;99.90;;;;;;5077273;28;20248;-75
2020/12/29 00:52:18;;;;;;;7.45;6.93;;;-2.20;99.90;;;;;;5074371;28;20222;-75
2020/12/29 00:54:45;;;;;;;7.70;7.10;;;-2.20;99.90;;;;;;5075704;28;20225;-75
2020/12/29 00:57:11;;;;;;;7.90;7.30;;;-2.20;99.90;;;;;;5081191;28;20213;-73
2020/12/29 00:59:38;;;;;;;7.13;6.65;;;-2.20;99.90;;;;;;5074870;28;20221;-74
2020/12/29 01:02:05;;;;;;;7.78;7.25;;;-2.30;99.90;;;;;;5069297;28;20237;-74
2020/12/29 01:04:31;;;;;;;8.15;7.55;;;-2.30;99.90;;;;;;5075158;28;20218;-75
2020/12/29 01:06:58;;;;;;;7.88;7.28;;;-2.30;99.90;;;;;;5072494;27;20229;-75
2020/12/29 01:09:24;;;;;;;8.60;8.00;;;-2.30;99.90;;;;;;5075910;28;20233;-77
2020/12/29 01:11:52;;;;;;;8.38;7.78;;;-2.20;99.90;;;;;;5074310;28;20248;-73
2020/12/29 01:14:19;;;;;;;8.23;7.53;;;-2.20;99.90;;;;;;5066304;28;20282;-74
2020/12/29 01:16:47;;;;;;;8.52;7.82;;;-2.20;99.90;;;;;;5071206;28;20218;-74
2020/12/29 01:19:13;;;;;;;7.97;7.38;;;-2.20;99.90;;;;;;5071538;28;21753;-74
2020/12/29 01:21:40;;;;;;;7.85;7.25;;;-2.20;99.90;;;;;;5069216;28;20498;-74
2020/12/29 01:24:07;;;;;;;7.90;7.22;;;-2.20;99.90;;;;;;5079121;27;20221;-75
2020/12/29 01:26:33;;;;;;;8.80;8.10;;;-2.30;99.90;;;;;;5075514;28;20221;-75
2020/12/29 01:29:01;;;;;;;8.30;7.65;;;-2.30;99.90;;;;;;5075094;28;20222;-75
2020/12/29 01:31:28;;;;;;;8.02;7.43;;;-2.40;99.90;;;;;;5078285;28;20218;-74
2020/12/29 01:33:56;;;;;;;7.85;7.30;;;-2.40;99.90;;;;;;5077273;28;20324;-74
2020/12/29 01:36:23;;;;;;;7.45;6.85;;;-2.50;99.90;;;;;;5076183;27;20230;-72
2020/12/29 01:38:49;;;;;;;7.90;7.30;;;-2.40;99.90;;;;;;5081528;28;20306;-74
2020/12/29 01:41:18;;;;;;;7.25;6.65;;;-2.40;99.90;;;;;;5077711;28;20213;-74
2020/12/29 01:43:44;;;;;;;7.35;6.78;;;-2.40;99.90;;;;;;5079729;28;20251;-75
2020/12/29 01:46:12;;;;;;;6.40;5.95;;;-2.40;99.90;;;;;;5078247;28;20220;-75
2020/12/29 01:48:38;;;;;;;7.20;6.70;;;-2.40;99.90;;;;;;5079192;28;20282;-74
2020/12/29 01:51:05;;;;;;;7.07;6.50;;;-2.40;99.90;;;;;;5080026;28;20217;-75
2020/12/29 01:53:31;;;;;;;6.15;5.75;;;-2.40;99.90;;;;;;5075932;28;20232;-75
2020/12/29 01:55:58;;;;;;;6.50;5.95;;;-2.40;99.90;;;;;;5080183;28;20225;-74
2020/12/29 01:58:25;;;;;;;6.18;5.75;;;-2.40;99.90;;;;;;5078534;28;20225;-75
2020/12/29 02:00:53;;;;;;;6.40;6.00;;;-2.30;99.90;;;;;;5076580;28;20244;-74
2020/12/29 02:03:21;;;;;;;6.07;5.65;;;-2.30;99.90;;;;;;5097614;28;20217;-74
2020/12/29 02:05:48;;;;;;;6.32;5.82;;;-2.30;99.90;;;;;;5076464;28;20217;-74
2020/12/29 02:08:15;;;;;;;5.80;5.40;;;-2.30;99.90;;;;;;5079664;28;20755;-75
2020/12/29 02:10:42;;;;;;;6.47;6.03;;;-2.20;99.90;;;;;;5079673;28;20247;-74
2020/12/29 02:13:08;;;;;;;6.00;5.60;;;-2.30;99.90;;;;;;5081321;28;20266;-75
2020/12/29 02:15:35;;;;;;;7.07;6.57;;;-2.30;99.90;;;;;;5080452;28;20232;-74
2020/12/29 02:18:02;;;;;;;6.40;6.00;;;-2.40;99.90;;;;;;5076805;28;20635;-74
2020/12/29 02:20:29;;;;;;;7.28;6.78;;;-2.50;99.90;;;;;;5077138;28;20233;-74
2020/12/29 02:22:56;;;;;;;6.40;5.90;;;-2.50;99.90;;;;;;5074564;28;20232;-75
2020/12/29 02:25:23;;;;;;;6.25;5.85;;;-2.50;99.90;;;;;;5071866;27;20217;-74
2020/12/29 02:27:51;;;;;;;6.38;5.90;;;-2.50;99.90;;;;;;5073108;28;20217;-74
2020/12/29 02:30:19;;;;;;;6.03;5.53;;;-2.50;99.90;;;;;;5077250;28;20225;-74
2020/12/29 02:32:45;;;;;;;5.47;5.07;;;-2.60;99.90;;;;;;5070760;28;20221;-75
2020/12/29 02:35:15;;;;;;;5.95;5.65;;;-2.60;99.90;;;;;;5072823;28;20592;-74
2020/12/29 02:37:41;;;;;;;6.25;5.85;;;-2.60;99.90;;;;;;5076767;28;20918;-74
2020/12/29 02:40:09;;;;;;;6.13;5.72;;;-2.70;99.90;;;;;;5073706;28;20587;-74
2020/12/29 02:42:35;;;;;;;6.57;6.13;;;-2.60;99.90;;;;;;5072135;28;20722;-74
2020/12/29 02:45:02;;;;;;;6.40;5.97;;;-2.70;99.90;;;;;;5074024;28;20217;-75
2020/12/29 02:47:29;;;;;;;6.32;5.93;;;-2.70;99.90;;;;;;5075971;28;20228;-74
2020/12/29 02:49:55;;;;;;;5.95;5.55;;;-2.70;99.90;;;;;;5073697;28;20226;-74
2020/12/29 02:52:22;;;;;;;5.72;5.32;;;-2.60;99.90;;;;;;5078776;28;20221;-75
2020/12/29 02:54:48;;;;;;;6.22;5.80;;;-2.60;99.90;;;;;;5082334;27;20233;-76
2020/12/29 02:57:16;;;;;;;5.75;5.32;;;-2.50;99.90;;;;;;5084922;28;20229;-75
2020/12/29 02:59:42;;;;;;;6.00;5.60;;;-2.50;99.90;;;;;;5074317;28;20228;-75
2020/12/29 03:02:09;;;;;;;5.65;5.30;;;-2.40;99.90;;;;;;5072374;28;20714;-74
2020/12/29 03:04:35;;;;;;;5.18;4.82;;;-2.40;99.90;;;;;;5069521;28;20234;-76
2020/12/29 03:07:02;;;;;;;5.88;5.43;;;-2.40;99.90;;;;;;5067117;28;20308;-74
2020/12/29 03:09:28;;;;;;;5.90;5.50;;;-2.50;99.90;;;;;;5079933;28;20236;-74
2020/12/29 03:11:55;;;;;;;6.25;5.85;;;-2.50;99.90;;;;;;5073513;28;20249;-75
2020/12/29 03:14:22;;;;;;;6.00;5.60;;;-2.60;99.90;;;;;;5077965;28;20718;-74
2020/12/29 03:16:49;;;;;;;5.25;4.95;;;-2.60;99.90;;;;;;5074856;28;20703;-74
2020/12/29 03:19:15;;;;;;;6.53;6.03;;;-2.60;99.90;;;;;;5073328;28;20229;-75
2020/12/29 03:21:42;;;;;;;5.57;5.28;;;-2.60;99.90;;;;;;5079067;28;20226;-74
2020/12/29 03:24:09;;;;;;;7.00;6.40;;;-2.60;99.90;;;;;;5072252;28;20221;-74
2020/12/29 03:26:36;;;;;;;6.13;5.72;;;-2.60;99.90;;;;;;5070485;28;20229;-74
2020/12/29 03:29:02;;;;;;;5.97;5.57;;;-2.50;99.90;;;;;;5077973;28;20225;-75
2020/12/29 03:31:30;;;;;;;6.13;5.72;;;-2.50;99.90;;;;;;5080338;28;20246;-75
2020/12/29 03:33:56;;;;;;;5.65;5.35;;;-2.50;99.90;;;;;;5073440;28;20218;-74
2020/12/29 03:36:23;;;;;;;5.22;4.82;;;-2.50;99.90;;;;;;5073573;28;20248;-74
2020/12/29 03:38:49;;;;;;;5.75;5.45;;;-2.40;99.90;;;;;;5077935;28;20217;-74
2020/12/29 03:41:16;;;;;;;5.65;5.30;;;-2.40;99.90;;;;;;5078162;28;20275;-75
2020/12/29 03:43:42;;;;;;;5.10;4.80;;;-2.40;99.90;;;;;;5072031;28;20235;-74
2020/12/29 03:46:09;;;;;;;5.05;4.75;;;-2.40;99.90;;;;;;5078023;28;20221;-76
2020/12/29 03:48:36;;;;;;;4.90;4.60;;;-2.40;99.90;;;;;;5097316;28;20218;-76
2020/12/29 03:51:03;;;;;;;5.40;5.10;;;-2.40;99.90;;;;;;5086243;28;20226;-76
2020/12/29 03:53:29;;;;;;;5.47;5.07;;;-2.40;99.90;;;;;;5075096;28;20597;-75
2020/12/29 03:55:56;;;;;;;6.13;5.72;;;-2.40;99.90;;;;;;5075157;28;20218;-73
2020/12/29 03:58:22;;;;;;;6.15;5.75;;;-2.50;99.90;;;;;;5075028;28;20604;-76
2020/12/29 04:00:50;;;;;;;5.95;5.55;;;-2.60;99.90;;;;;;5070535;28;20228;-74
2020/12/29 04:03:16;;;;;;;6.07;5.68;;;-2.60;99.90;;;;;;5076478;28;20788;-74
2020/12/29 04:05:44;;;;;;;6.25;5.75;;;-2.60;99.90;;;;;;5080828;28;20291;-74
2020/12/29 04:08:11;;;;;;;5.60;5.30;;;-2.60;99.90;;;;;;5072320;28;20224;-75
2020/12/29 04:10:38;;;;;;;5.55;5.15;;;-2.60;99.90;;;;;;5072437;28;20242;-74
2020/12/29 04:13:04;;;;;;;5.95;5.55;;;-2.60;99.90;;;;;;5076145;28;20218;-74
2020/12/29 04:15:31;;;;;;;5.40;5.10;;;-2.60;99.90;;;;;;5080040;28;20228;-74
2020/12/29 04:17:57;;;;;;;5.72;5.35;;;-2.60;99.90;;;;;;5074589;28;20233;-74
2020/12/29 04:20:24;;;;;;;5.93;5.53;;;-2.60;99.90;;;;;;5073905;28;20222;-75
2020/12/29 04:22:51;;;;;;;5.38;5.00;;;-2.60;99.90;;;;;;5074700;28;20237;-74
2020/12/29 04:25:18;;;;;;;5.82;5.43;;;-2.70;99.90;;;;;;5070126;28;20263;-75
2020/12/29 04:27:44;;;;;;;5.18;4.88;;;-2.70;99.90;;;;;;5072818;28;20218;-76
2020/12/29 04:30:11;;;;;;;5.70;5.40;;;-2.70;99.90;;;;;;5072320;28;20226;-75
2020/12/29 04:32:38;;;;;;;5.75;5.35;;;-2.70;99.90;;;;;;5074190;28;20222;-75
2020/12/29 04:35:06;;;;;;;6.00;5.60;;;-2.70;99.90;;;;;;5072431;28;20221;-74
2020/12/29 04:37:32;;;;;;;5.97;5.63;;;-2.70;99.90;;;;;;5075244;28;20217;-74
2020/12/29 04:40:00;;;;;;;5.97;5.57;;;-2.70;99.90;;;;;;5078885;28;20229;-74
2020/12/29 04:42:28;;;;;;;6.65;6.25;;;-2.70;99.90;;;;;;5103029;28;20233;-74
2020/12/29 04:44:54;;;;;;;5.95;5.55;;;-2.60;99.90;;;;;;5088529;28;20221;-75
2020/12/29 04:47:25;;;;;;;6.10;5.70;;;-2.60;99.90;;;;;;5073267;28;20283;-74
2020/12/29 04:49:52;;;;;;;6.55;6.05;;;-2.60;99.90;;;;;;5076272;28;20230;-75
2020/12/29 04:52:19;;;;;;;7.22;6.72;;;-2.60;99.90;;;;;;5082179;28;20248;-75
2020/12/29 04:54:51;;;;;;;6.50;6.10;;;-2.50;99.90;;;;;;5074105;28;20712;-75
2020/12/29 04:57:18;;;;;;;6.70;6.20;;;-2.60;99.90;;;;;;5082327;27;20354;-75
2020/12/29 04:59:45;;;;;;;6.82;6.32;;;-2.60;99.90;;;;;;5080749;28;20438;-74
2020/12/29 05:02:12;;;;;;;6.32;5.82;;;-2.60;99.90;;;;;;5078777;28;20867;-75
2020/12/29 05:04:38;;;;;;;6.40;5.95;;;-2.70;99.90;;;;;;5080404;28;20591;-74
2020/12/29 05:07:05;;;;;;;5.97;5.57;;;-2.70;99.90;;;;;;5081869;28;20216;-74
2020/12/29 05:09:33;;;;;;;5.75;5.35;;;-2.70;99.90;;;;;;5082162;28;20232;-74
2020/12/29 05:11:59;;;;;;;5.85;5.45;;;-2.60;99.90;;;;;;5087873;27;20221;-74
2020/12/29 05:14:28;;;;;;;6.28;5.88;;;-2.60;99.90;;;;;;5081271;27;20217;-74
2020/12/29 05:16:55;;;;;;;5.43;5.03;;;-2.60;99.90;;;;;;5079750;28;20230;-74
2020/12/29 05:19:23;;;;;;;5.40;5.00;;;-2.50;99.90;;;;;;5081085;28;20635;-74
2020/12/29 05:21:50;;;;;;;5.72;5.32;;;-2.50;99.90;;;;;;5077530;28;21631;-75
2020/12/29 05:24:18;;;;;;;5.32;5.03;;;-2.40;99.90;;;;;;5076839;28;20598;-74
2020/12/29 05:26:47;;;;;;;5.90;5.50;;;-2.40;99.90;;;;;;5078727;28;20217;-75
2020/12/29 05:29:14;;;;;;;5.97;5.57;;;-2.50;99.90;;;;;;5076917;28;20228;-74
2020/12/29 05:31:43;;;;;;;5.88;5.57;;;-2.50;99.90;;;;;;5076431;28;20597;-75
2020/12/29 05:34:18;;;;;;;6.30;5.82;;;-2.50;99.90;;;;;;5089423;28;20212;-75
2020/12/29 05:36:45;;;;;;;5.50;5.15;;;-2.50;99.90;;;;;;5084384;28;20647;-74
2020/12/29 05:39:13;;;;;;;5.03;4.72;;;-2.40;99.90;;;;;;5077935;28;20236;-75
2020/12/29 05:41:41;;;;;;;5.78;5.38;;;-2.40;99.90;;;;;;5078350;28;20300;-74
2020/12/29 05:44:09;;;;;;;5.57;5.18;;;-2.30;99.90;;;;;;5078552;28;21497;-75
2020/12/29 05:46:35;;;;;;;5.60;5.20;;;-2.30;99.90;;;;;;5078760;28;20236;-75
2020/12/29 05:49:04;;;;;;;5.93;5.50;;;-2.20;99.90;;;;;;5081056;27;20237;-76
2020/12/29 05:51:32;;;;;;;5.55;5.25;;;-2.20;99.90;;;;;;5077357;28;20224;-74
2020/12/29 05:54:01;;;;;;;6.20;5.70;;;-2.10;99.90;;;;;;5084860;28;20603;-74
2020/12/29 05:56:32;;;;;;;5.40;5.05;;;-2.00;99.90;;;;;;5081172;28;20219;-74
2020/12/29 05:59:00;;;;;;;5.63;5.28;;;-2.00;99.90;;;;;;5087313;28;20232;-74
2020/12/29 06:01:38;;;;;;;5.75;5.32;;;-2.00;99.90;;;;;;5076459;28;20278;-75
2020/12/29 06:04:06;;;;;;;5.63;5.30;;;-1.90;99.90;;;;;;5074140;28;20216;-74
2020/12/29 06:06:34;;;;;;;5.63;5.13;;;-1.90;99.90;;;;;;5074002;28;20227;-74
2020/12/29 06:09:06;;;;;;;6.22;5.82;;;-1.90;99.90;;;;;;5076049;28;20242;-74
2020/12/29 06:11:41;;;;;;;5.88;5.47;;;-1.80;99.90;;;;;;5081502;28;20221;-74
2020/12/29 06:14:14;;;;;;;5.82;5.47;;;-1.80;99.90;;;;;;5081006;28;20296;-74
2020/12/29 06:16:42;;;;;;;5.85;5.45;;;-1.80;99.90;;;;;;5079344;28;20213;-74
2020/12/29 06:19:23;;;;;;;6.28;5.88;;;-1.70;99.90;;;;;;5079612;28;20704;-75
2020/12/29 06:22:08;;;;;;;5.63;5.25;;;-1.70;99.90;;;;;;5077079;28;20248;-75
2020/12/29 06:24:37;;;;;;;5.57;5.20;;;-1.60;99.90;;;;;;5076996;28;20224;-74
2020/12/29 06:27:05;;;;;;;5.82;5.43;;;-1.60;99.90;;;;;;5092989;28;20221;-75
2020/12/29 06:29:34;;;;;;;6.47;5.95;;;-1.60;99.90;;;;;;5079993;28;20233;-74
2020/12/29 06:32:04;;;;;;;9.88;8.88;;;-1.60;99.90;;;;;;5076105;28;20258;-74
2020/12/29 06:34:34;;;;;;;8.45;7.75;;;-1.60;99.90;;;;;;5073605;28;20218;-76
2020/12/29 06:37:09;;;;;;;7.88;7.28;;;-1.60;99.90;;;;;;5077998;28;20308;-74
2020/12/29 06:39:40;;;;;;;7.68;7.00;;;-1.60;99.90;;;;;;5077888;28;20229;-74
2020/12/29 06:42:09;;;;;;;7.53;7.03;;;-1.60;99.90;;;;;;5077586;28;20633;-75
2020/12/29 06:44:35;;;;;;;6.53;6.03;;;-1.60;99.90;;;;;;5081274;28;20225;-74
2020/12/29 06:47:07;;;;;;;7.72;7.03;;;-1.60;99.90;;;;;;5079915;28;20225;-74
2020/12/29 06:49:35;;;;;;;6.82;6.35;;;-1.60;99.90;;;;;;5082212;28;20251;-74
2020/12/29 06:52:17;;;;;;;6.85;6.35;;;-1.50;99.90;;;;;;5075808;28;20229;-75
2020/12/29 06:54:48;;;;;;;6.57;6.18;;;-1.50;99.90;;;;;;5076953;28;20304;-74
2020/12/29 06:57:16;;;;;;;5.90;5.50;;;-1.50;99.90;;;;;;5065841;28;20287;-76
2020/12/29 06:59:42;;;;;;;7.70;7.10;;;-1.40;99.90;;;;;;5059608;28;20226;-74
2020/12/29 07:02:19;;;;;;;6.78;6.28;;;-1.50;99.90;;;;;;5055482;28;20231;-75
2020/12/29 07:04:53;;;;;;;7.22;6.68;;;-1.40;99.90;;;;;;5046801;28;20225;-75
2020/12/29 07:07:28;;;;;;;6.55;6.15;;;-1.40;99.90;;;;;;5058612;28;20464;-75
2020/12/29 07:10:10;;;;;;;7.43;6.93;;;-1.40;99.90;;;;;;5053635;28;20232;-75
2020/12/29 07:12:40;;;;;;;7.65;7.15;;;-1.40;99.90;;;;;;5049126;28;20345;-75
2020/12/29 07:15:07;;;;;;;7.28;6.70;;;-1.50;99.90;;;;;;5042585;28;20225;-76
2020/12/29 07:17:33;;;;;;;8.52;7.78;;;-1.50;99.90;;;;;;5075983;28;20217;-75
2020/12/29 07:20:11;;;;;;;8.02;7.43;;;-1.50;99.90;;;;;;5085400;28;20233;-76
2020/12/29 07:22:38;;;;;;;8.50;7.82;;;-1.60;99.90;;;;;;5072078;28;20217;-75
2020/12/29 07:25:06;;;;;;;9.02;8.32;;;-1.60;99.90;;;;;;5074093;28;20543;-75
2020/12/29 07:27:33;;;;;;;9.85;9.00;;;-1.60;99.90;;;;;;5072499;28;20221;-75
2020/12/29 07:30:00;;;;;;;8.73;8.00;;;-1.70;99.90;;;;;;5070448;28;20220;-74
2020/12/29 07:32:28;;;;;;;9.90;9.07;;;-1.70;99.90;;;;;;5070020;28;20213;-73
2020/12/29 07:34:54;;;;;;;8.40;7.70;;;-1.70;99.90;;;;;;5072744;28;20217;-74
2020/12/29 07:37:23;;;;;;;8.35;7.55;;;-1.70;99.90;;;;;;5065305;28;20538;-73
2020/12/29 07:39:50;;;;;;;8.18;7.55;;;-1.60;99.90;;;;;;5066092;28;20233;-75
2020/12/29 07:42:17;;;;;;;8.10;7.40;;;-1.50;99.90;;;;;;5069709;28;20226;-76
2020/12/29 07:44:44;;;;;;;8.25;7.55;;;-1.40;99.90;;;;;;5069088;28;20332;-75
2020/12/29 07:47:11;;;;;;;8.02;7.53;;;-1.30;99.90;;;;;;5068894;28;20233;-75
2020/12/29 07:49:38;;;;;;;7.85;7.15;;;-1.20;99.90;;;;;;5070259;28;20737;-74
2020/12/29 07:52:05;;;;;;;8.88;8.07;;;-1.10;99.90;;;;;;5072388;28;20277;-74
2020/12/29 07:54:33;;;;;;;8.32;7.53;;;-1.00;99.90;;;;;;5073831;28;20278;-76
2020/12/29 07:57:00;;;;;;;9.85;8.95;;;-0.90;99.90;;;;;;5067575;28;20234;-75
2020/12/29 07:59:27;;;;;;;9.27;8.48;;;-0.70;99.90;;;;;;5071856;28;20632;-75
2020/12/29 08:01:55;;;;;;;10.57;9.57;;;-0.60;99.90;;;;;;5068748;28;20773;-74
2020/12/29 08:04:29;;;;;;;9.80;8.80;;;-0.50;99.90;;;;;;5071020;28;20261;-74
2020/12/29 08:06:57;;;;;;;9.40;8.57;;;-0.40;99.90;;;;;;5079073;28;20223;-76
2020/12/29 08:09:24;;;;;;;8.68;7.97;;;-0.20;99.90;;;;;;5079861;28;20282;-75
2020/12/29 08:11:51;;;;;;;10.90;9.85;;;-0.10;99.90;;;;;;5080735;28;20275;-75
2020/12/29 08:14:18;;;;;;;10.68;9.70;;;0.00;99.90;;;;;;5071771;28;20217;-75
2020/12/29 08:16:45;;;;;;;11.20;10.25;;;0.10;99.90;;;;;;5075456;28;20935;-75
2020/12/29 08:19:11;;;;;;;9.98;9.07;;;0.20;99.90;;;;;;5078025;28;20226;-75
2020/12/29 08:21:39;;;;;;;14.70;13.20;;;0.10;99.90;;;;;;5083772;28;20270;-75
2020/12/29 08:24:06;;;;;;;14.85;13.48;;;0.00;99.90;;;;;;5071632;28;20558;-75
2020/12/29 08:26:33;;;;;;;14.65;13.25;;;0.10;99.90;;;;;;5074169;28;20222;-75
2020/12/29 08:29:01;;;;;;;13.70;12.40;;;0.20;99.90;;;;;;5078956;27;20221;-74
2020/12/29 08:31:29;;;;;;;13.43;12.23;;;0.40;99.90;;;;;;5080553;27;20213;-74
2020/12/29 08:33:58;;;;;;;12.70;11.45;;;0.60;99.90;;;;;;5082517;27;20610;-75
2020/12/29 08:36:26;;;;;;;12.23;11.18;;;0.80;99.90;;;;;;5079682;28;20249;-74
2020/12/29 08:39:20;;;;;;;11.68;10.68;;;1.00;99.90;;;;;;5083568;28;20714;-76
2020/12/29 08:41:53;;;;;;;12.25;11.15;;;1.00;99.90;;;;;;5040989;28;20221;-74
2020/12/29 08:44:22;;;;;;;12.02;10.73;;;1.00;99.90;;;;;;5053629;28;20223;-74
2020/12/29 08:46:48;;;;;;;12.32;11.13;;;1.00;99.90;;;;;;5050986;28;20661;-75
2020/12/29 08:49:15;;;;;;;12.25;11.25;;;1.00;99.90;;;;;;5059286;28;20455;-77
2020/12/29 08:51:43;;;;;;;11.38;10.35;;;1.00;99.90;;;;;;5055457;28;20896;-75
2020/12/29 08:54:11;;;;;;;11.35;10.38;;;1.00;99.90;;;;;;5054866;28;20225;-74
2020/12/29 08:56:38;;;;;;;11.95;10.95;;;0.90;99.90;;;;;;5051535;28;20275;-75
2020/12/29 08:59:12;;;;;;;12.00;10.85;;;1.50;99.90;;;;;;5049965;28;20226;-75
2020/12/29 09:01:40;;;;;;;11.55;10.45;;;2.00;99.90;;;;;;5049653;28;20635;-74
2020/12/29 09:04:36;;;;;;;11.93;10.82;;;2.10;99.90;;;;;;5063070;28;20475;-77
2020/12/29 09:07:07;;;;;;;11.82;10.70;;;2.10;99.90;;;;;;5038180;28;20214;-74
2020/12/29 09:09:36;;;;;;;11.32;10.23;;;2.20;99.90;;;;;;5058984;28;20237;-75
2020/12/29 09:12:13;;;;;;;12.48;11.27;;;2.00;99.90;;;;;;5061923;28;20798;-75
2020/12/29 09:14:50;;;;;;;13.85;12.45;;;1.80;99.90;;;;;;5073255;28;20213;-76
2020/12/29 09:17:18;;;;;;;11.80;10.80;;;1.70;99.90;;;;;;5074435;28;20221;-75
2020/12/29 09:20:06;;;;;;;12.10;11.00;;;1.80;99.90;;;;;;5073275;28;20602;-75
2020/12/29 09:22:32;;;;;;;11.20;10.10;;;3.50;99.90;;;;;;5068441;28;20221;-76
2020/12/29 09:24:59;;;;;;;12.00;10.80;;;3.60;99.90;;;;;;5075642;28;20223;-75
2020/12/29 09:27:29;;;;;;;12.07;10.98;;;3.30;99.90;;;;;;5068147;28;20225;-76
2020/12/29 09:29:56;;;;;;;11.70;10.70;;;2.90;99.90;;;;;;5068862;28;20217;-73
2020/12/29 09:32:24;;;;;;;11.75;10.65;;;2.70;99.90;;;;;;5068653;28;20313;-76
2020/12/29 09:34:51;;;;;;;12.63;11.52;;;2.60;99.90;;;;;;5069214;28;20242;-74
2020/12/29 09:37:18;;;;;;;11.57;10.45;;;2.40;99.90;;;;;;5066421;28;20232;-77
2020/12/29 09:39:45;;;;;;;11.48;10.40;;;2.40;99.90;;;;;;5066619;28;20294;-75
2020/12/29 09:42:11;;;;;;;13.10;11.90;;;2.40;99.90;;;;;;5064502;28;20226;-75
2020/12/29 09:44:39;;;;;;;14.13;12.93;;;2.20;99.90;;;;;;5069612;27;20707;-74
2020/12/29 09:47:06;;;;;;;12.77;11.48;;;2.00;99.90;;;;;;5076365;28;20362;-73
2020/12/29 09:49:33;;;;;;;12.35;11.25;;;1.80;99.90;;;;;;5075390;28;20232;-75
2020/12/29 09:52:00;;;;;;;13.32;12.10;;;1.70;99.90;;;;;;5072717;28;20222;-75
2020/12/29 09:54:27;;;;;;;11.65;10.57;;;1.50;99.90;;;;;;5074117;28;20320;-76
2020/12/29 09:56:56;;;;;;;11.23;10.23;;;1.40;99.90;;;;;;5087212;28;20218;-77
2020/12/29 09:59:23;;;;;;;11.93;10.82;;;1.30;99.90;;;;;;5077214;28;20282;-76
2020/12/29 10:01:50;;;;;;;10.85;9.85;;;1.10;99.90;;;;;;5073000;28;20213;-75
2020/12/29 10:04:16;;;;;;;11.35;10.40;;;1.10;99.90;;;;;;5068246;28;20331;-75
2020/12/29 10:06:44;;;;;;;15.05;13.55;;;1.10;99.90;;;;;;5072399;28;20222;-75
2020/12/29 10:09:10;;;;;;;14.40;13.10;;;1.20;99.90;;;;;;5074114;28;20236;-77
2020/12/29 10:11:37;;;;;;;13.80;12.50;;;1.30;99.90;;;;;;5074459;28;20752;-78
2020/12/29 10:14:03;;;;;;;13.35;12.10;;;1.40;99.90;;;;;;5067408;28;20220;-76
2020/12/29 10:16:33;;;;;;;14.25;12.85;;;1.50;99.90;;;;;;5070472;28;20229;-76
2020/12/29 10:19:00;;;;;;;13.68;12.48;;;1.60;99.90;;;;;;5048662;28;20231;-75
2020/12/29 10:21:26;;;;;;;14.27;12.98;;;1.70;99.90;;;;;;5055769;28;20210;-73
2020/12/29 10:23:54;;;;;;;13.48;12.18;;;2.00;99.90;;;;;;5066005;28;20225;-75
2020/12/29 10:26:20;;;;;;;15.73;14.25;;;2.10;99.90;;;;;;5070306;28;20221;-73
2020/12/29 10:28:47;;;;;;;16.20;14.80;;;2.50;99.90;;;;;;5063060;28;20379;-73
2020/12/29 10:31:13;;;;;;;15.48;14.05;;;3.30;99.90;;;;;;5060563;28;20330;-74
2020/12/29 10:33:40;;;;;;;13.63;12.45;;;4.10;99.90;;;;;;5069787;28;20213;-77
2020/12/29 10:36:06;;;;;;;13.63;12.32;;;4.60;99.90;;;;;;5069180;28;20749;-77
2020/12/29 10:38:33;;;;;;;13.52;12.32;;;4.30;99.90;;;;;;5071137;28;20218;-74
2020/12/29 10:42:50;;;;;;;14.43;13.02;;;3.40;99.90;;;;;;5063307;27;20537;-75
2020/12/29 10:45:16;;;;;;;14.27;12.98;;;2.90;99.90;;;;;;5071298;28;20226;-75
2020/12/29 10:47:43;;;;;;;15.48;13.88;;;2.60;99.90;;;;;;5072880;27;20233;-74
2020/12/29 10:50:10;;;;;;;14.15;12.75;;;2.20;99.90;;;;;;5074106;28;20234;-75
2020/12/29 10:52:36;;;;;;;13.65;12.38;;;2.00;99.90;;;;;;5074177;28;20232;-76
2020/12/29 10:55:03;;;;;;;14.57;13.38;;;1.80;99.90;;;;;;5080134;28;20700;-74
2020/12/29 10:57:29;;;;;;;13.30;12.20;;;1.60;99.90;;;;;;5074612;28;20220;-74
2020/12/29 10:59:57;;;;;;;13.07;11.93;;;1.50;99.90;;;;;;5072572;28;20221;-76
2020/12/29 11:02:23;;;;;;;12.05;11.05;;;1.50;99.90;;;;;;5074224;28;20233;-76
2020/12/29 11:04:50;;;;;;;13.00;11.88;;;1.50;99.90;;;;;;5070920;28;20221;-75
2020/12/29 11:07:16;;;;;;;13.90;12.70;;;1.70;99.90;;;;;;5072131;28;20222;-76
2020/12/29 11:09:43;;;;;;;13.20;12.00;;;1.70;99.90;;;;;;5078085;28;20248;-76
2020/12/29 11:12:09;;;;;;;14.82;13.52;;;1.70;99.90;;;;;;5070565;28;20746;-76
2020/12/29 11:14:36;;;;;;;15.70;14.10;;;1.70;99.90;;;;;;5076248;28;20439;-76
2020/12/29 11:17:03;;;;;;;15.10;13.60;;;1.90;99.90;;;;;;5080229;28;20221;-75
2020/12/29 11:19:30;;;;;;;16.00;14.25;;;2.20;99.90;;;;;;5080091;28;20229;-76
2020/12/29 11:21:56;;;;;;;16.88;15.27;;;2.40;99.90;;;;;;5076179;28;20227;-77
2020/12/29 11:24:23;;;;;;;16.05;14.55;;;2.50;99.90;;;;;;5077470;28;20446;-75
2020/12/29 11:26:49;;;;;;;16.27;14.70;;;2.60;99.90;;;;;;5076389;28;20226;-76
2020/12/29 11:29:16;;;;;;;15.43;13.88;;;2.80;99.90;;;;;;5073259;28;20750;-75
2020/12/29 11:31:42;;;;;;;15.60;14.15;;;2.80;99.90;;;;;;5079273;28;20221;-78
2020/12/29 11:34:10;;;;;;;14.60;13.35;;;2.70;99.90;;;;;;5076106;28;20654;-75
2020/12/29 11:36:36;;;;;;;15.35;13.88;;;2.60;99.90;;;;;;5075185;28;20230;-75
2020/12/29 11:39:03;;;;;;;16.40;14.82;;;2.60;99.90;;;;;;5079490;28;20591;-77
2020/12/29 11:41:29;;;;;;;15.68;14.18;;;2.50;99.90;;;;;;5075804;27;20613;-76
2020/12/29 11:43:56;;;;;;;16.25;14.65;;;2.50;99.90;;;;;;5088980;28;20213;-74
2020/12/29 11:46:22;;;;;;;15.68;14.15;;;2.30;99.90;;;;;;5073461;28;20233;-75
2020/12/29 11:48:49;;;;;;;15.57;13.98;;;2.20;99.90;;;;;;5071863;28;20225;-74
2020/12/29 11:51:16;;;;;;;16.35;14.68;;;2.20;99.90;;;;;;5073813;27;20225;-75
2020/12/29 11:53:43;;;;;;;16.10;14.60;;;2.20;99.90;;;;;;5065130;28;20267;-75
2020/12/29 11:56:11;;;;;;;15.30;13.80;;;2.20;99.90;;;;;;5069868;28;20225;-76
2020/12/29 11:58:37;;;;;;;16.20;14.60;;;2.20;99.90;;;;;;5074605;28;20233;-75
2020/12/29 12:01:04;;;;;;;15.93;14.32;;;2.40;99.90;;;;;;5066243;28;20229;-74
2020/12/29 12:03:31;;;;;;;16.90;15.20;;;2.50;99.90;;;;;;5060694;28;20317;-76
2020/12/29 12:05:57;;;;;;;17.42;15.73;;;2.50;99.90;;;;;;5063158;28;20218;-75
2020/12/29 12:08:25;;;;;;;16.05;14.63;;;2.60;99.90;;;;;;5064360;28;20241;-75
2020/12/29 12:10:51;;;;;;;17.33;15.63;;;2.50;99.90;;;;;;5065934;28;20229;-77
2020/12/29 12:13:18;;;;;;;16.88;15.15;;;2.50;99.90;;;;;;5062141;28;20343;-74
2020/12/29 12:15:44;;;;;;;18.10;16.38;;;2.40;99.90;;;;;;5066939;28;20233;-74
2020/12/29 12:18:11;;;;;;;17.88;16.17;;;2.30;99.90;;;;;;5062865;28;20221;-74
2020/12/29 12:20:38;;;;;;;17.92;16.25;;;2.20;99.90;;;;;;5060514;28;20222;-76
2020/12/29 12:23:04;;;;;;;19.05;17.30;;;2.10;99.90;;;;;;5060280;28;20222;-75
2020/12/29 12:25:32;;;;;;;16.95;15.35;;;1.90;99.90;;;;;;5056820;28;20225;-74
2020/12/29 12:28:00;;;;;;;15.88;14.48;;;1.90;99.90;;;;;;5056323;28;20559;-76
2020/12/29 12:30:26;;;;;;;16.77;15.02;;;2.10;99.90;;;;;;5052879;28;21456;-77
2020/12/29 12:33:02;;;;;;;17.65;16.05;;;2.00;99.90;;;;;;5062529;28;20327;-75
2020/12/29 12:35:29;;;;;;;18.10;16.50;;;2.10;99.90;;;;;;5073000;28;20232;-75
2020/12/29 12:37:55;;;;;;;16.60;15.10;;;2.10;99.90;;;;;;5056628;28;20230;-76
2020/12/29 12:40:22;;;;;;;17.55;15.85;;;2.20;99.90;;;;;;5055045;28;20229;-74
2020/12/29 12:42:51;;;;;;;16.35;14.85;;;2.30;99.90;;;;;;5066612;28;20275;-75
2020/12/29 12:45:19;;;;;;;17.25;15.55;;;2.40;99.90;;;;;;5050277;28;20246;-76
2020/12/29 12:47:46;;;;;;;18.77;16.98;;;2.50;99.90;;;;;;5055993;28;20225;-76